sensor_id;sensor_type;location;lat;lon;timestamp;P1;durP1;ratioP1;P2;durP2;ratioP2
14704;SDS011;7442;50.840;3.396;2022-08-01T00:00:38;2.27;;;1.40;;
14704;SDS011;7442;50.840;3.396;2022-08-01T00:03:06;3.12;;;1.30;;
14704;SDS011;7442;50.840;3.396;2022-08-01T00:05:35;2.15;;;1.42;;
14704;SDS011;7442;50.840;3.396;2022-08-01T00:08:03;1.85;;;1.12;;
14704;SDS011;7442;50.840;3.396;2022-08-01T00:10:33;1.92;;;1.25;;
14704;SDS011;7442;50.840;3.396;2022-08-01T00:13:00;1.60;;;1.12;;
14704;SDS011;7442;50.840;3.396;2022-08-01T00:15:28;2.10;;;1.20;;
14704;SDS011;7442;50.840;3.396;2022-08-01T00:17:56;1.50;;;1.10;;
14704;SDS011;7442;50.840;3.396;2022-08-01T00:20:30;1.40;;;0.90;;
14704;SDS011;7442;50.840;3.396;2022-08-01T00:22:58;1.80;;;1.05;;
14704;SDS011;7442;50.840;3.396;2022-08-01T00:25:26;1.25;;;0.82;;
14704;SDS011;7442;50.840;3.396;2022-08-01T00:27:53;1.50;;;1.07;;
14704;SDS011;7442;50.840;3.396;2022-08-01T00:30:21;1.45;;;1.22;;
14704;SDS011;7442;50.840;3.396;2022-08-01T00:32:49;1.67;;;1.30;;
14704;SDS011;7442;50.840;3.396;2022-08-01T00:35:16;1.67;;;1.15;;
14704;SDS011;7442;50.840;3.396;2022-08-01T00:37:44;1.92;;;1.20;;
14704;SDS011;7442;50.840;3.396;2022-08-01T00:40:13;1.05;;;0.90;;
14704;SDS011;7442;50.840;3.396;2022-08-01T00:42:40;1.47;;;1.35;;
14704;SDS011;7442;50.840;3.396;2022-08-01T00:47:29;1.07;;;1.00;;
14704;SDS011;7442;50.840;3.396;2022-08-01T00:50:15;1.37;;;0.90;;
14704;SDS011;7442;50.840;3.396;2022-08-01T00:53:02;2.08;;;0.85;;
14704;SDS011;7442;50.840;3.396;2022-08-01T00:55:49;1.62;;;1.02;;
14704;SDS011;7442;50.840;3.396;2022-08-01T00:58:35;2.17;;;1.25;;
14704;SDS011;7442;50.840;3.396;2022-08-01T01:01:22;1.95;;;1.20;;
14704;SDS011;7442;50.840;3.396;2022-08-01T01:04:08;2.58;;;1.27;;
14704;SDS011;7442;50.840;3.396;2022-08-01T01:10:03;1.30;;;1.15;;
14704;SDS011;7442;50.840;3.396;2022-08-01T01:12:51;2.67;;;1.37;;
14704;SDS011;7442;50.840;3.396;2022-08-01T01:15:57;2.12;;;1.35;;
14704;SDS011;7442;50.840;3.396;2022-08-01T01:18:47;1.35;;;1.20;;
14704;SDS011;7442;50.840;3.396;2022-08-01T01:24:40;2.50;;;1.37;;
14704;SDS011;7442;50.840;3.396;2022-08-01T01:27:39;1.77;;;1.17;;
14704;SDS011;7442;50.840;3.396;2022-08-01T01:30:44;1.70;;;1.07;;
14704;SDS011;7442;50.840;3.396;2022-08-01T01:33:34;1.75;;;1.35;;
14704;SDS011;7442;50.840;3.396;2022-08-01T01:36:25;2.75;;;1.40;;
14704;SDS011;7442;50.840;3.396;2022-08-01T01:39:14;1.45;;;1.05;;
14704;SDS011;7442;50.840;3.396;2022-08-01T01:42:02;2.85;;;1.27;;
14704;SDS011;7442;50.840;3.396;2022-08-01T01:44:51;2.05;;;1.40;;
14704;SDS011;7442;50.840;3.396;2022-08-01T01:47:40;2.05;;;1.60;;
14704;SDS011;7442;50.840;3.396;2022-08-01T01:50:29;1.17;;;1.10;;
14704;SDS011;7442;50.840;3.396;2022-08-01T01:53:17;1.65;;;1.22;;
14704;SDS011;7442;50.840;3.396;2022-08-01T01:56:05;1.22;;;1.12;;
14704;SDS011;7442;50.840;3.396;2022-08-01T01:58:54;1.32;;;1.22;;
14704;SDS011;7442;50.840;3.396;2022-08-01T02:01:43;1.57;;;1.30;;
14704;SDS011;7442;50.840;3.396;2022-08-01T02:04:31;3.67;;;1.40;;
14704;SDS011;7442;50.840;3.396;2022-08-01T02:07:21;1.32;;;1.20;;
14704;SDS011;7442;50.840;3.396;2022-08-01T02:10:10;1.82;;;1.50;;
14704;SDS011;7442;50.840;3.396;2022-08-01T02:12:57;4.33;;;1.50;;
14704;SDS011;7442;50.840;3.396;2022-08-01T02:15:47;4.20;;;1.85;;
14704;SDS011;7442;50.840;3.396;2022-08-01T02:18:34;1.95;;;1.60;;
14704;SDS011;7442;50.840;3.396;2022-08-01T02:21:27;2.08;;;1.77;;
14704;SDS011;7442;50.840;3.396;2022-08-01T02:24:14;1.35;;;1.20;;
14704;SDS011;7442;50.840;3.396;2022-08-01T02:27:20;1.62;;;1.52;;
14704;SDS011;7442;50.840;3.396;2022-08-01T02:30:10;1.92;;;1.75;;
14704;SDS011;7442;50.840;3.396;2022-08-01T02:33:05;1.60;;;1.50;;
14704;SDS011;7442;50.840;3.396;2022-08-01T02:36:04;1.57;;;1.40;;
14704;SDS011;7442;50.840;3.396;2022-08-01T02:38:51;2.00;;;1.62;;
14704;SDS011;7442;50.840;3.396;2022-08-01T02:41:41;3.50;;;2.20;;
14704;SDS011;7442;50.840;3.396;2022-08-01T02:44:31;2.30;;;1.80;;
14704;SDS011;7442;50.840;3.396;2022-08-01T02:47:20;2.85;;;1.87;;
14704;SDS011;7442;50.840;3.396;2022-08-01T02:50:09;2.67;;;1.92;;
14704;SDS011;7442;50.840;3.396;2022-08-01T02:52:58;2.65;;;1.62;;
14704;SDS011;7442;50.840;3.396;2022-08-01T02:55:47;2.72;;;1.98;;
14704;SDS011;7442;50.840;3.396;2022-08-01T02:58:35;1.77;;;1.50;;
14704;SDS011;7442;50.840;3.396;2022-08-01T03:01:23;3.50;;;1.90;;
14704;SDS011;7442;50.840;3.396;2022-08-01T03:04:09;2.77;;;1.90;;
14704;SDS011;7442;50.840;3.396;2022-08-01T03:06:57;2.30;;;2.00;;
14704;SDS011;7442;50.840;3.396;2022-08-01T03:09:46;1.82;;;1.57;;
14704;SDS011;7442;50.840;3.396;2022-08-01T03:12:34;1.87;;;1.70;;
14704;SDS011;7442;50.840;3.396;2022-08-01T03:15:22;2.77;;;1.95;;
14704;SDS011;7442;50.840;3.396;2022-08-01T03:18:11;2.27;;;1.90;;
14704;SDS011;7442;50.840;3.396;2022-08-01T03:21:00;1.95;;;1.70;;
14704;SDS011;7442;50.840;3.396;2022-08-01T03:23:52;1.90;;;1.52;;
14704;SDS011;7442;50.840;3.396;2022-08-01T03:26:41;2.62;;;1.80;;
14704;SDS011;7442;50.840;3.396;2022-08-01T03:29:29;2.12;;;1.92;;
14704;SDS011;7442;50.840;3.396;2022-08-01T03:32:18;2.25;;;1.75;;
14704;SDS011;7442;50.840;3.396;2022-08-01T03:35:06;2.27;;;1.67;;
14704;SDS011;7442;50.840;3.396;2022-08-01T03:37:53;1.70;;;1.60;;
14704;SDS011;7442;50.840;3.396;2022-08-01T03:40:43;3.05;;;1.87;;
14704;SDS011;7442;50.840;3.396;2022-08-01T03:43:42;1.90;;;1.80;;
14704;SDS011;7442;50.840;3.396;2022-08-01T03:46:32;2.42;;;1.92;;
14704;SDS011;7442;50.840;3.396;2022-08-01T03:49:29;1.75;;;1.65;;
14704;SDS011;7442;50.840;3.396;2022-08-01T03:52:16;2.08;;;1.62;;
14704;SDS011;7442;50.840;3.396;2022-08-01T03:55:03;1.90;;;1.70;;
14704;SDS011;7442;50.840;3.396;2022-08-01T03:57:54;3.55;;;2.10;;
14704;SDS011;7442;50.840;3.396;2022-08-01T04:00:42;1.80;;;1.70;;
14704;SDS011;7442;50.840;3.396;2022-08-01T04:03:29;2.83;;;1.72;;
14704;SDS011;7442;50.840;3.396;2022-08-01T04:06:16;2.37;;;1.65;;
14704;SDS011;7442;50.840;3.396;2022-08-01T04:09:04;2.40;;;1.67;;
14704;SDS011;7442;50.840;3.396;2022-08-01T04:11:52;3.30;;;2.22;;
14704;SDS011;7442;50.840;3.396;2022-08-01T04:14:39;2.72;;;1.90;;
14704;SDS011;7442;50.840;3.396;2022-08-01T04:17:25;2.20;;;1.65;;
14704;SDS011;7442;50.840;3.396;2022-08-01T04:20:11;1.75;;;1.52;;
14704;SDS011;7442;50.840;3.396;2022-08-01T04:22:58;2.25;;;1.77;;
14704;SDS011;7442;50.840;3.396;2022-08-01T04:25:45;2.30;;;1.62;;
14704;SDS011;7442;50.840;3.396;2022-08-01T04:28:34;2.50;;;1.55;;
14704;SDS011;7442;50.840;3.396;2022-08-01T04:31:22;1.98;;;1.70;;
14704;SDS011;7442;50.840;3.396;2022-08-01T04:34:12;2.22;;;1.85;;
14704;SDS011;7442;50.840;3.396;2022-08-01T04:37:01;1.70;;;1.35;;
14704;SDS011;7442;50.840;3.396;2022-08-01T04:39:49;2.83;;;2.10;;
14704;SDS011;7442;50.840;3.396;2022-08-01T04:42:37;1.82;;;1.65;;
14704;SDS011;7442;50.840;3.396;2022-08-01T04:45:24;2.75;;;1.80;;
14704;SDS011;7442;50.840;3.396;2022-08-01T04:48:12;2.12;;;1.92;;
14704;SDS011;7442;50.840;3.396;2022-08-01T04:51:00;2.15;;;1.92;;
14704;SDS011;7442;50.840;3.396;2022-08-01T04:53:48;2.20;;;1.80;;
14704;SDS011;7442;50.840;3.396;2022-08-01T04:56:35;2.65;;;1.67;;
14704;SDS011;7442;50.840;3.396;2022-08-01T04:59:22;2.25;;;1.70;;
14704;SDS011;7442;50.840;3.396;2022-08-01T05:02:26;1.98;;;1.67;;
14704;SDS011;7442;50.840;3.396;2022-08-01T05:05:13;1.82;;;1.60;;
14704;SDS011;7442;50.840;3.396;2022-08-01T05:07:59;3.45;;;2.15;;
14704;SDS011;7442;50.840;3.396;2022-08-01T05:10:46;2.72;;;1.72;;
14704;SDS011;7442;50.840;3.396;2022-08-01T05:13:32;2.87;;;1.67;;
14704;SDS011;7442;50.840;3.396;2022-08-01T05:16:19;1.95;;;1.42;;
14704;SDS011;7442;50.840;3.396;2022-08-01T05:19:05;2.40;;;1.60;;
14704;SDS011;7442;50.840;3.396;2022-08-01T05:21:53;3.90;;;1.67;;
14704;SDS011;7442;50.840;3.396;2022-08-01T05:24:40;3.37;;;1.40;;
14704;SDS011;7442;50.840;3.396;2022-08-01T05:27:27;4.40;;;2.15;;
14704;SDS011;7442;50.840;3.396;2022-08-01T05:30:13;3.67;;;1.60;;
14704;SDS011;7442;50.840;3.396;2022-08-01T05:32:59;4.03;;;1.72;;
14704;SDS011;7442;50.840;3.396;2022-08-01T05:35:45;6.03;;;1.75;;
14704;SDS011;7442;50.840;3.396;2022-08-01T05:38:32;5.17;;;2.17;;
14704;SDS011;7442;50.840;3.396;2022-08-01T05:41:19;3.85;;;1.98;;
14704;SDS011;7442;50.840;3.396;2022-08-01T05:44:07;2.42;;;1.57;;
14704;SDS011;7442;50.840;3.396;2022-08-01T05:46:54;2.45;;;1.90;;
14704;SDS011;7442;50.840;3.396;2022-08-01T05:49:47;2.98;;;1.52;;
14704;SDS011;7442;50.840;3.396;2022-08-01T05:52:34;4.58;;;1.80;;
14704;SDS011;7442;50.840;3.396;2022-08-01T05:55:20;2.47;;;1.70;;
14704;SDS011;7442;50.840;3.396;2022-08-01T05:58:07;4.85;;;2.10;;
14704;SDS011;7442;50.840;3.396;2022-08-01T06:00:55;2.47;;;1.50;;
14704;SDS011;7442;50.840;3.396;2022-08-01T06:03:41;4.17;;;1.95;;
14704;SDS011;7442;50.840;3.396;2022-08-01T06:06:28;3.77;;;1.67;;
14704;SDS011;7442;50.840;3.396;2022-08-01T06:09:15;2.50;;;1.75;;
14704;SDS011;7442;50.840;3.396;2022-08-01T06:12:01;1.95;;;1.50;;
14704;SDS011;7442;50.840;3.396;2022-08-01T06:14:50;3.95;;;1.62;;
14704;SDS011;7442;50.840;3.396;2022-08-01T06:17:37;4.55;;;1.80;;
14704;SDS011;7442;50.840;3.396;2022-08-01T06:20:30;1.95;;;1.62;;
14704;SDS011;7442;50.840;3.396;2022-08-01T06:23:17;4.45;;;1.70;;
14704;SDS011;7442;50.840;3.396;2022-08-01T06:26:05;2.83;;;1.72;;
14704;SDS011;7442;50.840;3.396;2022-08-01T06:28:52;4.00;;;1.90;;
14704;SDS011;7442;50.840;3.396;2022-08-01T06:31:38;4.85;;;1.98;;
14704;SDS011;7442;50.840;3.396;2022-08-01T06:34:25;6.00;;;2.12;;
14704;SDS011;7442;50.840;3.396;2022-08-01T06:37:11;10.85;;;2.12;;
14704;SDS011;7442;50.840;3.396;2022-08-01T06:39:41;6.30;;;2.00;;
14704;SDS011;7442;50.840;3.396;2022-08-01T06:42:09;10.98;;;2.12;;
14704;SDS011;7442;50.840;3.396;2022-08-01T06:44:56;11.22;;;2.25;;
14704;SDS011;7442;50.840;3.396;2022-08-01T06:47:49;4.65;;;1.70;;
14704;SDS011;7442;50.840;3.396;2022-08-01T06:50:36;5.22;;;1.82;;
14704;SDS011;7442;50.840;3.396;2022-08-01T06:53:22;2.52;;;1.42;;
14704;SDS011;7442;50.840;3.396;2022-08-01T06:56:11;6.67;;;1.90;;
14704;SDS011;7442;50.840;3.396;2022-08-01T06:58:57;5.65;;;2.05;;
14704;SDS011;7442;50.840;3.396;2022-08-01T07:01:45;6.28;;;1.80;;
14704;SDS011;7442;50.840;3.396;2022-08-01T07:04:31;7.08;;;1.65;;
14704;SDS011;7442;50.840;3.396;2022-08-01T07:07:18;6.33;;;2.00;;
14704;SDS011;7442;50.840;3.396;2022-08-01T07:10:07;5.08;;;1.47;;
14704;SDS011;7442;50.840;3.396;2022-08-01T07:12:53;9.85;;;1.82;;
14704;SDS011;7442;50.840;3.396;2022-08-01T07:15:40;6.08;;;1.42;;
14704;SDS011;7442;50.840;3.396;2022-08-01T07:18:28;3.33;;;1.57;;
14704;SDS011;7442;50.840;3.396;2022-08-01T07:21:14;8.98;;;1.92;;
14704;SDS011;7442;50.840;3.396;2022-08-01T07:24:02;4.97;;;1.90;;
14704;SDS011;7442;50.840;3.396;2022-08-01T07:26:49;5.78;;;1.60;;
14704;SDS011;7442;50.840;3.396;2022-08-01T07:29:35;2.98;;;1.32;;
14704;SDS011;7442;50.840;3.396;2022-08-01T07:32:21;7.70;;;1.82;;
14704;SDS011;7442;50.840;3.396;2022-08-01T07:35:13;4.03;;;2.20;;
14704;SDS011;7442;50.840;3.396;2022-08-01T07:37:58;4.17;;;2.08;;
14704;SDS011;7442;50.840;3.396;2022-08-01T07:40:44;4.55;;;1.85;;
14704;SDS011;7442;50.840;3.396;2022-08-01T07:43:31;5.60;;;2.17;;
14704;SDS011;7442;50.840;3.396;2022-08-01T07:46:17;6.10;;;2.33;;
14704;SDS011;7442;50.840;3.396;2022-08-01T07:49:04;8.75;;;2.52;;
14704;SDS011;7442;50.840;3.396;2022-08-01T07:51:50;7.50;;;1.98;;
14704;SDS011;7442;50.840;3.396;2022-08-01T07:54:37;10.63;;;2.02;;
14704;SDS011;7442;50.840;3.396;2022-08-01T07:57:23;5.15;;;2.10;;
14704;SDS011;7442;50.840;3.396;2022-08-01T08:00:11;4.28;;;2.05;;
14704;SDS011;7442;50.840;3.396;2022-08-01T08:02:57;2.72;;;2.08;;
14704;SDS011;7442;50.840;3.396;2022-08-01T08:05:44;6.50;;;1.85;;
14704;SDS011;7442;50.840;3.396;2022-08-01T08:08:30;4.47;;;2.08;;
14704;SDS011;7442;50.840;3.396;2022-08-01T08:11:18;2.67;;;1.95;;
14704;SDS011;7442;50.840;3.396;2022-08-01T08:14:05;5.78;;;2.00;;
14704;SDS011;7442;50.840;3.396;2022-08-01T08:16:51;6.47;;;1.92;;
14704;SDS011;7442;50.840;3.396;2022-08-01T08:19:38;4.10;;;1.80;;
14704;SDS011;7442;50.840;3.396;2022-08-01T08:22:24;3.30;;;1.70;;
14704;SDS011;7442;50.840;3.396;2022-08-01T08:25:17;3.55;;;1.60;;
14704;SDS011;7442;50.840;3.396;2022-08-01T08:28:07;4.40;;;1.70;;
14704;SDS011;7442;50.840;3.396;2022-08-01T08:30:54;7.05;;;1.87;;
14704;SDS011;7442;50.840;3.396;2022-08-01T08:33:40;9.00;;;2.00;;
14704;SDS011;7442;50.840;3.396;2022-08-01T08:36:27;3.47;;;1.70;;
14704;SDS011;7442;50.840;3.396;2022-08-01T08:39:14;3.45;;;1.67;;
14704;SDS011;7442;50.840;3.396;2022-08-01T08:42:04;4.12;;;1.70;;
14704;SDS011;7442;50.840;3.396;2022-08-01T08:44:50;5.62;;;1.60;;
14704;SDS011;7442;50.840;3.396;2022-08-01T08:47:38;2.60;;;1.55;;
14704;SDS011;7442;50.840;3.396;2022-08-01T08:50:27;4.40;;;1.70;;
14704;SDS011;7442;50.840;3.396;2022-08-01T08:53:14;2.08;;;1.40;;
14704;SDS011;7442;50.840;3.396;2022-08-01T08:56:01;4.70;;;1.50;;
14704;SDS011;7442;50.840;3.396;2022-08-01T08:58:51;4.10;;;1.55;;
14704;SDS011;7442;50.840;3.396;2022-08-01T09:01:37;3.45;;;1.35;;
14704;SDS011;7442;50.840;3.396;2022-08-01T09:04:24;4.08;;;1.57;;
14704;SDS011;7442;50.840;3.396;2022-08-01T09:07:18;73.70;;;19.02;;
14704;SDS011;7442;50.840;3.396;2022-08-01T09:10:05;307.15;;;75.87;;
14704;SDS011;7442;50.840;3.396;2022-08-01T09:13:03;170.50;;;37.83;;
14704;SDS011;7442;50.840;3.396;2022-08-01T09:15:52;72.78;;;19.02;;
14704;SDS011;7442;50.840;3.396;2022-08-01T09:18:40;45.52;;;11.65;;
14704;SDS011;7442;50.840;3.396;2022-08-01T09:21:28;32.88;;;8.18;;
14704;SDS011;7442;50.840;3.396;2022-08-01T09:24:15;18.07;;;5.40;;
14704;SDS011;7442;50.840;3.396;2022-08-01T09:27:02;15.08;;;4.10;;
14704;SDS011;7442;50.840;3.396;2022-08-01T09:30:09;10.68;;;3.52;;
14704;SDS011;7442;50.840;3.396;2022-08-01T09:33:01;8.98;;;3.12;;
14704;SDS011;7442;50.840;3.396;2022-08-01T09:35:56;5.62;;;2.65;;
14704;SDS011;7442;50.840;3.396;2022-08-01T09:38:42;6.70;;;2.35;;
14704;SDS011;7442;50.840;3.396;2022-08-01T09:41:29;8.10;;;2.55;;
14704;SDS011;7442;50.840;3.396;2022-08-01T09:44:17;5.33;;;1.90;;
14704;SDS011;7442;50.840;3.396;2022-08-01T09:47:05;3.90;;;1.92;;
14704;SDS011;7442;50.840;3.396;2022-08-01T09:49:55;5.05;;;1.87;;
14704;SDS011;7442;50.840;3.396;2022-08-01T09:52:48;2.62;;;1.67;;
14704;SDS011;7442;50.840;3.396;2022-08-01T09:55:33;3.98;;;1.72;;
14704;SDS011;7442;50.840;3.396;2022-08-01T09:58:20;3.58;;;1.87;;
14704;SDS011;7442;50.840;3.396;2022-08-01T10:01:06;1.98;;;1.42;;
14704;SDS011;7442;50.840;3.396;2022-08-01T10:04:05;4.30;;;1.50;;
14704;SDS011;7442;50.840;3.396;2022-08-01T10:07:07;2.65;;;1.75;;
14704;SDS011;7442;50.840;3.396;2022-08-01T10:09:55;5.33;;;1.92;;
14704;SDS011;7442;50.840;3.396;2022-08-01T10:12:43;6.12;;;2.10;;
14704;SDS011;7442;50.840;3.396;2022-08-01T10:15:30;4.92;;;1.70;;
14704;SDS011;7442;50.840;3.396;2022-08-01T10:18:16;4.42;;;1.80;;
14704;SDS011;7442;50.840;3.396;2022-08-01T10:21:03;4.87;;;2.00;;
14704;SDS011;7442;50.840;3.396;2022-08-01T10:23:57;5.10;;;1.87;;
14704;SDS011;7442;50.840;3.396;2022-08-01T10:26:51;4.40;;;1.52;;
14704;SDS011;7442;50.840;3.396;2022-08-01T10:32:41;6.37;;;1.85;;
14704;SDS011;7442;50.840;3.396;2022-08-01T10:35:32;8.65;;;1.77;;
14704;SDS011;7442;50.840;3.396;2022-08-01T10:38:19;5.45;;;1.65;;
14704;SDS011;7442;50.840;3.396;2022-08-01T10:41:14;4.05;;;1.75;;
14704;SDS011;7442;50.840;3.396;2022-08-01T10:44:01;2.40;;;1.50;;
14704;SDS011;7442;50.840;3.396;2022-08-01T10:46:52;3.67;;;1.50;;
14704;SDS011;7442;50.840;3.396;2022-08-01T10:56:00;1.60;;;1.20;;
14704;SDS011;7442;50.840;3.396;2022-08-01T10:59:02;4.97;;;1.07;;
14704;SDS011;7442;50.840;3.396;2022-08-01T11:01:58;2.20;;;1.35;;
14704;SDS011;7442;50.840;3.396;2022-08-01T11:05:09;4.17;;;1.30;;
14704;SDS011;7442;50.840;3.396;2022-08-01T11:07:43;1.42;;;0.98;;
14704;SDS011;7442;50.840;3.396;2022-08-01T11:10:42;1.80;;;1.27;;
14704;SDS011;7442;50.840;3.396;2022-08-01T11:14:12;2.35;;;1.55;;
14704;SDS011;7442;50.840;3.396;2022-08-01T11:16:41;2.65;;;1.20;;
14704;SDS011;7442;50.840;3.396;2022-08-01T11:19:36;2.85;;;1.52;;
14704;SDS011;7442;50.840;3.396;2022-08-01T11:22:18;2.33;;;1.27;;
14704;SDS011;7442;50.840;3.396;2022-08-01T11:25:05;4.58;;;1.60;;
14704;SDS011;7442;50.840;3.396;2022-08-01T11:34:00;4.20;;;1.60;;
14704;SDS011;7442;50.840;3.396;2022-08-01T11:36:47;2.85;;;1.27;;
14704;SDS011;7442;50.840;3.396;2022-08-01T11:39:35;1.50;;;0.85;;
14704;SDS011;7442;50.840;3.396;2022-08-01T11:42:22;2.47;;;1.05;;
14704;SDS011;7442;50.840;3.396;2022-08-01T11:45:09;2.98;;;1.25;;
14704;SDS011;7442;50.840;3.396;2022-08-01T11:47:55;1.30;;;1.20;;
14704;SDS011;7442;50.840;3.396;2022-08-01T11:50:42;2.62;;;1.22;;
14704;SDS011;7442;50.840;3.396;2022-08-01T11:53:28;2.17;;;1.20;;
14704;SDS011;7442;50.840;3.396;2022-08-01T11:56:17;2.10;;;1.35;;
14704;SDS011;7442;50.840;3.396;2022-08-01T11:59:05;2.40;;;1.20;;
14704;SDS011;7442;50.840;3.396;2022-08-01T12:01:52;3.45;;;1.20;;
14704;SDS011;7442;50.840;3.396;2022-08-01T12:04:49;1.50;;;1.00;;
14704;SDS011;7442;50.840;3.396;2022-08-01T12:07:41;1.90;;;0.90;;
14704;SDS011;7442;50.840;3.396;2022-08-01T12:10:32;1.92;;;1.20;;
14704;SDS011;7442;50.840;3.396;2022-08-01T12:13:23;1.85;;;1.10;;
14704;SDS011;7442;50.840;3.396;2022-08-01T12:16:10;3.72;;;1.17;;
14704;SDS011;7442;50.840;3.396;2022-08-01T12:18:57;2.67;;;0.80;;
14704;SDS011;7442;50.840;3.396;2022-08-01T12:21:44;1.80;;;0.88;;
14704;SDS011;7442;50.840;3.396;2022-08-01T12:24:34;1.67;;;0.90;;
14704;SDS011;7442;50.840;3.396;2022-08-01T12:27:25;2.77;;;1.20;;
14704;SDS011;7442;50.840;3.396;2022-08-01T12:30:14;1.50;;;0.95;;
14704;SDS011;7442;50.840;3.396;2022-08-01T12:33:05;2.10;;;0.90;;
14704;SDS011;7442;50.840;3.396;2022-08-01T12:35:54;1.60;;;1.00;;
14704;SDS011;7442;50.840;3.396;2022-08-01T12:38:42;1.77;;;1.00;;
14704;SDS011;7442;50.840;3.396;2022-08-01T12:41:28;1.57;;;1.00;;
14704;SDS011;7442;50.840;3.396;2022-08-01T12:44:15;2.05;;;1.02;;
14704;SDS011;7442;50.840;3.396;2022-08-01T12:47:02;1.47;;;0.80;;
14704;SDS011;7442;50.840;3.396;2022-08-01T12:49:51;1.05;;;0.80;;
14704;SDS011;7442;50.840;3.396;2022-08-01T12:52:37;3.72;;;0.98;;
14704;SDS011;7442;50.840;3.396;2022-08-01T12:55:25;2.83;;;1.10;;
14704;SDS011;7442;50.840;3.396;2022-08-01T12:58:12;4.33;;;1.15;;
14704;SDS011;7442;50.840;3.396;2022-08-01T13:01:03;3.75;;;1.00;;
14704;SDS011;7442;50.840;3.396;2022-08-01T13:06:52;4.80;;;1.00;;
14704;SDS011;7442;50.840;3.396;2022-08-01T13:09:48;5.10;;;1.10;;
14704;SDS011;7442;50.840;3.396;2022-08-01T13:12:37;5.87;;;0.72;;
14704;SDS011;7442;50.840;3.396;2022-08-01T13:15:28;2.15;;;1.07;;
14704;SDS011;7442;50.840;3.396;2022-08-01T13:21:15;3.58;;;1.17;;
14704;SDS011;7442;50.840;3.396;2022-08-01T13:24:05;1.85;;;0.90;;
14704;SDS011;7442;50.840;3.396;2022-08-01T13:26:59;2.85;;;1.35;;
14704;SDS011;7442;50.840;3.396;2022-08-01T13:29:49;5.78;;;1.42;;
14704;SDS011;7442;50.840;3.396;2022-08-01T13:32:37;2.40;;;1.02;;
14704;SDS011;7442;50.840;3.396;2022-08-01T13:35:23;3.20;;;1.02;;
14704;SDS011;7442;50.840;3.396;2022-08-01T13:38:10;4.20;;;1.20;;
14704;SDS011;7442;50.840;3.396;2022-08-01T13:40:59;2.42;;;1.05;;
14704;SDS011;7442;50.840;3.396;2022-08-01T13:43:46;4.90;;;1.10;;
14704;SDS011;7442;50.840;3.396;2022-08-01T13:46:33;2.52;;;1.12;;
14704;SDS011;7442;50.840;3.396;2022-08-01T13:49:19;4.17;;;1.35;;
14704;SDS011;7442;50.840;3.396;2022-08-01T13:52:08;2.12;;;1.27;;
14704;SDS011;7442;50.840;3.396;2022-08-01T13:54:54;1.98;;;1.10;;
14704;SDS011;7442;50.840;3.396;2022-08-01T13:57:41;3.47;;;1.05;;
14704;SDS011;7442;50.840;3.396;2022-08-01T14:00:27;2.95;;;1.20;;
14704;SDS011;7442;50.840;3.396;2022-08-01T14:03:14;2.92;;;1.17;;
14704;SDS011;7442;50.840;3.396;2022-08-01T14:06:01;8.68;;;1.55;;
14704;SDS011;7442;50.840;3.396;2022-08-01T14:08:48;22.25;;;1.95;;
14704;SDS011;7442;50.840;3.396;2022-08-01T14:11:35;10.15;;;1.82;;
14704;SDS011;7442;50.840;3.396;2022-08-01T14:14:22;15.58;;;1.92;;
14704;SDS011;7442;50.840;3.396;2022-08-01T14:17:08;8.90;;;1.70;;
14704;SDS011;7442;50.840;3.396;2022-08-01T14:19:54;6.55;;;1.72;;
14704;SDS011;7442;50.840;3.396;2022-08-01T14:22:50;8.95;;;1.37;;
14704;SDS011;7442;50.840;3.396;2022-08-01T14:25:33;12.85;;;2.05;;
14704;SDS011;7442;50.840;3.396;2022-08-01T14:28:20;7.83;;;1.60;;
14704;SDS011;7442;50.840;3.396;2022-08-01T14:31:08;7.50;;;1.52;;
14704;SDS011;7442;50.840;3.396;2022-08-01T14:33:55;5.53;;;1.37;;
14704;SDS011;7442;50.840;3.396;2022-08-01T14:36:41;7.15;;;1.47;;
14704;SDS011;7442;50.840;3.396;2022-08-01T14:39:28;2.25;;;1.37;;
14704;SDS011;7442;50.840;3.396;2022-08-01T14:42:14;2.52;;;1.07;;
14704;SDS011;7442;50.840;3.396;2022-08-01T14:45:01;2.02;;;1.10;;
14704;SDS011;7442;50.840;3.396;2022-08-01T14:47:50;2.05;;;1.05;;
14704;SDS011;7442;50.840;3.396;2022-08-01T14:50:44;5.72;;;1.32;;
14704;SDS011;7442;50.840;3.396;2022-08-01T14:53:30;6.17;;;1.45;;
14704;SDS011;7442;50.840;3.396;2022-08-01T14:56:17;5.70;;;1.10;;
14704;SDS011;7442;50.840;3.396;2022-08-01T14:59:03;1.17;;;1.00;;
14704;SDS011;7442;50.840;3.396;2022-08-01T15:01:50;3.10;;;1.30;;
14704;SDS011;7442;50.840;3.396;2022-08-01T15:04:36;2.42;;;1.15;;
14704;SDS011;7442;50.840;3.396;2022-08-01T15:07:22;3.42;;;1.10;;
14704;SDS011;7442;50.840;3.396;2022-08-01T15:10:08;3.33;;;1.17;;
14704;SDS011;7442;50.840;3.396;2022-08-01T15:12:56;1.90;;;1.10;;
14704;SDS011;7442;50.840;3.396;2022-08-01T15:15:44;3.45;;;1.32;;
14704;SDS011;7442;50.840;3.396;2022-08-01T15:18:31;2.47;;;0.85;;
14704;SDS011;7442;50.840;3.396;2022-08-01T15:21:17;1.32;;;0.90;;
14704;SDS011;7442;50.840;3.396;2022-08-01T15:24:04;2.65;;;0.90;;
14704;SDS011;7442;50.840;3.396;2022-08-01T15:26:51;6.17;;;1.02;;
14704;SDS011;7442;50.840;3.396;2022-08-01T15:29:37;1.62;;;1.10;;
14704;SDS011;7442;50.840;3.396;2022-08-01T15:32:26;2.10;;;1.10;;
14704;SDS011;7442;50.840;3.396;2022-08-01T15:35:12;3.47;;;1.37;;
14704;SDS011;7442;50.840;3.396;2022-08-01T15:37:58;3.10;;;1.27;;
14704;SDS011;7442;50.840;3.396;2022-08-01T15:40:45;3.77;;;1.45;;
14704;SDS011;7442;50.840;3.396;2022-08-01T15:43:31;3.15;;;1.30;;
14704;SDS011;7442;50.840;3.396;2022-08-01T15:46:18;5.15;;;1.15;;
14704;SDS011;7442;50.840;3.396;2022-08-01T15:49:08;2.12;;;1.20;;
14704;SDS011;7442;50.840;3.396;2022-08-01T15:51:55;2.55;;;1.20;;
14704;SDS011;7442;50.840;3.396;2022-08-01T15:54:48;2.83;;;1.22;;
14704;SDS011;7442;50.840;3.396;2022-08-01T15:57:34;4.28;;;1.90;;
14704;SDS011;7442;50.840;3.396;2022-08-01T16:00:22;4.17;;;1.20;;
14704;SDS011;7442;50.840;3.396;2022-08-01T16:03:08;5.58;;;1.60;;
14704;SDS011;7442;50.840;3.396;2022-08-01T16:06:03;5.33;;;1.72;;
14704;SDS011;7442;50.840;3.396;2022-08-01T16:08:51;3.75;;;1.30;;
14704;SDS011;7442;50.840;3.396;2022-08-01T16:11:37;4.67;;;1.70;;
14704;SDS011;7442;50.840;3.396;2022-08-01T16:14:24;4.20;;;1.52;;
14704;SDS011;7442;50.840;3.396;2022-08-01T16:17:11;7.55;;;1.52;;
14704;SDS011;7442;50.840;3.396;2022-08-01T16:19:57;6.60;;;1.42;;
14704;SDS011;7442;50.840;3.396;2022-08-01T16:22:50;4.58;;;1.42;;
14704;SDS011;7442;50.840;3.396;2022-08-01T16:25:36;3.33;;;1.52;;
14704;SDS011;7442;50.840;3.396;2022-08-01T16:28:22;4.70;;;1.32;;
14704;SDS011;7442;50.840;3.396;2022-08-01T16:31:10;4.30;;;1.32;;
14704;SDS011;7442;50.840;3.396;2022-08-01T16:33:56;5.65;;;1.35;;
14704;SDS011;7442;50.840;3.396;2022-08-01T16:36:42;3.83;;;1.40;;
14704;SDS011;7442;50.840;3.396;2022-08-01T16:39:28;1.95;;;1.27;;
14704;SDS011;7442;50.840;3.396;2022-08-01T16:42:15;2.35;;;1.40;;
14704;SDS011;7442;50.840;3.396;2022-08-01T16:45:01;2.50;;;1.12;;
14704;SDS011;7442;50.840;3.396;2022-08-01T16:47:48;2.42;;;1.52;;
14704;SDS011;7442;50.840;3.396;2022-08-01T16:50:35;4.70;;;1.50;;
14704;SDS011;7442;50.840;3.396;2022-08-01T16:53:22;2.58;;;1.07;;
14704;SDS011;7442;50.840;3.396;2022-08-01T16:56:08;4.87;;;1.37;;
14704;SDS011;7442;50.840;3.396;2022-08-01T16:58:55;3.08;;;1.35;;
14704;SDS011;7442;50.840;3.396;2022-08-01T17:01:43;5.83;;;1.47;;
14704;SDS011;7442;50.840;3.396;2022-08-01T17:04:29;5.05;;;1.50;;
14704;SDS011;7442;50.840;3.396;2022-08-01T17:07:16;6.83;;;1.60;;
14704;SDS011;7442;50.840;3.396;2022-08-01T17:10:03;3.27;;;1.17;;
14704;SDS011;7442;50.840;3.396;2022-08-01T17:12:51;3.35;;;1.25;;
14704;SDS011;7442;50.840;3.396;2022-08-01T17:15:37;3.17;;;1.12;;
14704;SDS011;7442;50.840;3.396;2022-08-01T17:18:23;3.10;;;1.25;;
14704;SDS011;7442;50.840;3.396;2022-08-01T17:21:10;3.87;;;1.40;;
14704;SDS011;7442;50.840;3.396;2022-08-01T17:23:56;2.00;;;1.00;;
14704;SDS011;7442;50.840;3.396;2022-08-01T17:26:42;3.08;;;1.25;;
14704;SDS011;7442;50.840;3.396;2022-08-01T17:29:29;1.57;;;1.17;;
14704;SDS011;7442;50.840;3.396;2022-08-01T17:32:16;2.95;;;1.45;;